createdAt,value
2023-03-29T00:00:38.705Z,1.2059
2023-03-29T00:01:40.139Z,1.3257
2023-03-29T00:02:53.386Z,1.2312
2023-03-29T00:03:43.066Z,1.3017
2023-03-29T00:04:44.436Z,1.4206
2023-03-29T00:05:45.945Z,1.4706
2023-03-29T00:06:47.284Z,1.1254
2023-03-29T00:07:48.729Z,1.1506
2023-03-29T00:08:50.167Z,1.4043
2023-03-29T00:09:51.563Z,1.2283
2023-03-29T00:10:52.998Z,1.3781
2023-03-29T00:11:54.422Z,1.0686
2023-03-29T00:12:55.848Z,1.0067
2023-03-29T00:13:57.298Z,1.1569
2023-03-29T00:14:58.722Z,1.1645
2023-03-29T00:16:00.145Z,1.1102
2023-03-29T00:17:01.613Z,1.1966
2023-03-29T00:18:02.999Z,1.3115
2023-03-29T00:19:04.443Z,1.3486
2023-03-29T00:20:05.854Z,1.2647
2023-03-29T00:21:07.302Z,1.1188
2023-03-29T00:22:08.741Z,1.3081
2023-03-29T00:23:10.171Z,1.3906
2023-03-29T00:24:11.560Z,1.3758
2023-03-29T00:25:13.074Z,1.2576
2023-03-29T00:26:14.489Z,1.3652
2023-03-29T00:27:15.889Z,1.2127
2023-03-29T00:28:17.336Z,1.4509
2023-03-29T00:29:18.801Z,1.3507
2023-03-29T00:30:20.159Z,1.3947
2023-03-29T00:31:21.646Z,1.2814
2023-03-29T00:32:23.051Z,1.1449
2023-03-29T00:33:24.475Z,1.1996
2023-03-29T00:34:25.899Z,1.2405
2023-03-29T00:35:27.360Z,1.3209
2023-03-29T00:36:28.771Z,1.2675
2023-03-29T00:37:30.217Z,1.2301
2023-03-29T00:38:31.773Z,1.2567
2023-03-29T00:39:33.032Z,1.2674
2023-03-29T00:40:34.466Z,1.1824
2023-03-29T00:41:35.914Z,1.1453
2023-03-29T00:42:37.363Z,1.1939
2023-03-29T00:43:38.749Z,1.0950
2023-03-29T00:44:40.171Z,1.3291
2023-03-29T00:45:41.588Z,1.1896
2023-03-29T00:46:43.117Z,1.2299
2023-03-29T00:47:44.542Z,1.2614
2023-03-29T00:48:45.922Z,1.1887
2023-03-29T00:49:47.300Z,0.9961
2023-03-29T00:50:48.772Z,0.9774
2023-03-29T00:51:50.177Z,1.1696
2023-03-29T00:52:51.602Z,1.1001
2023-03-29T00:53:53.032Z,1.3766
2023-03-29T00:54:54.457Z,1.2698
2023-03-29T00:55:55.886Z,1.2573
2023-03-29T00:56:57.430Z,1.2020
2023-03-29T00:57:58.742Z,1.1178
2023-03-29T00:59:00.172Z,1.1489
2023-03-29T01:00:01.609Z,1.1693
2023-03-29T01:01:03.316Z,1.1835
2023-03-29T01:02:04.503Z,1.2964
2023-03-29T01:03:05.961Z,1.2792
2023-03-29T01:04:07.312Z,0.8514
2023-03-29T01:05:08.719Z,1.1226
2023-03-29T01:06:10.126Z,1.2513
2023-03-29T01:07:11.632Z,1.1764
2023-03-29T01:08:12.992Z,1.2611
2023-03-29T01:09:14.428Z,1.0892
2023-03-29T01:10:15.844Z,1.1099
2023-03-29T01:11:17.524Z,1.1286
2023-03-29T01:12:18.704Z,1.0700
2023-03-29T01:13:20.110Z,1.2390
2023-03-29T01:14:21.542Z,1.1659
2023-03-29T01:15:23.020Z,1.1074
2023-03-29T01:16:24.420Z,1.0689
2023-03-29T01:17:25.919Z,1.1331
2023-03-29T01:18:27.269Z,1.0753
2023-03-29T01:19:28.726Z,1.0312
2023-03-29T01:20:30.133Z,1.2265
2023-03-29T01:21:31.610Z,1.1711
2023-03-29T01:22:33.008Z,1.1465
2023-03-29T01:23:34.431Z,1.1520
2023-03-29T01:24:35.865Z,1.1900
2023-03-29T01:25:37.293Z,1.2714
2023-03-29T01:26:38.722Z,1.1636
2023-03-29T01:27:40.160Z,0.9633
2023-03-29T01:28:41.547Z,1.1535
2023-03-29T01:29:42.992Z,1.1042
2023-03-29T01:30:44.423Z,0.8272
2023-03-29T01:31:45.976Z,1.0525
2023-03-29T01:32:47.293Z,1.1499
2023-03-29T01:33:48.738Z,1.1389
2023-03-29T01:34:50.098Z,1.2257
2023-03-29T01:35:51.589Z,0.9898
2023-03-29T01:36:52.951Z,1.1059
2023-03-29T01:37:54.450Z,1.0938
2023-03-29T01:38:55.817Z,1.1306
2023-03-29T01:39:57.254Z,1.1622
2023-03-29T01:40:58.663Z,0.9928
2023-03-29T01:42:00.102Z,1.1267
2023-03-29T01:43:01.560Z,1.1923
2023-03-29T01:44:03.011Z,1.1940
2023-03-29T01:45:04.384Z,1.1719
2023-03-29T01:46:05.830Z,1.1245
2023-03-29T01:47:07.270Z,1.0663
2023-03-29T01:48:08.691Z,0.8842
2023-03-29T01:49:10.087Z,1.1570
2023-03-29T01:50:11.550Z,1.0411
2023-03-29T01:51:12.947Z,1.0404
2023-03-29T01:52:14.391Z,1.0570
2023-03-29T01:53:15.824Z,1.1848
2023-03-29T01:54:17.244Z,1.2054
2023-03-29T01:55:18.659Z,1.0103
2023-03-29T01:56:20.101Z,0.9767
2023-03-29T01:57:21.536Z,1.0139
2023-03-29T01:58:22.946Z,1.0264
2023-03-29T01:59:24.341Z,1.1260
2023-03-29T02:00:25.796Z,1.1824
2023-03-29T02:01:27.248Z,0.9981
2023-03-29T02:02:28.754Z,1.0032
2023-03-29T02:03:30.140Z,1.2912
2023-03-29T02:04:31.492Z,1.0083
2023-03-29T02:05:32.922Z,1.0878
2023-03-29T02:06:34.445Z,1.2165
2023-03-29T02:07:35.761Z,1.1273
2023-03-29T02:08:37.229Z,1.2257
2023-03-29T02:09:38.630Z,0.9726
2023-03-29T02:10:40.080Z,1.1245
2023-03-29T02:11:41.466Z,1.0880
2023-03-29T02:12:42.929Z,0.8964
2023-03-29T02:13:44.441Z,1.2144
2023-03-29T02:14:45.867Z,0.9903
2023-03-29T02:15:47.386Z,1.0369
2023-03-29T02:16:48.702Z,1.0827
2023-03-29T02:17:50.174Z,1.0272
2023-03-29T02:18:51.543Z,0.8730
2023-03-29T02:19:52.984Z,1.0288
2023-03-29T02:20:54.398Z,1.0829
2023-03-29T02:21:55.813Z,0.9379
2023-03-29T02:22:57.278Z,1.1132
2023-03-29T02:23:58.676Z,0.9324
2023-03-29T02:25:00.132Z,1.0660
2023-03-29T02:26:01.521Z,1.1690
2023-03-29T02:27:02.949Z,1.0424
2023-03-29T02:28:04.384Z,1.0698
2023-03-29T02:29:05.806Z,1.1785
2023-03-29T02:30:07.238Z,0.8880
2023-03-29T02:31:08.687Z,0.8500
2023-03-29T02:32:10.073Z,1.0638
2023-03-29T02:33:11.625Z,1.0692
2023-03-29T02:34:12.977Z,0.9963
2023-03-29T02:35:14.339Z,0.9540
2023-03-29T02:36:15.779Z,1.0441
2023-03-29T02:37:17.193Z,0.9426
2023-03-29T02:38:18.660Z,1.0577
2023-03-29T02:39:20.049Z,1.2351
2023-03-29T02:40:21.490Z,1.0765
2023-03-29T02:41:22.893Z,1.0192
2023-03-29T02:42:24.318Z,0.8615
2023-03-29T02:43:26.139Z,0.9021
2023-03-29T02:44:27.160Z,0.8776
2023-03-29T02:45:28.618Z,1.0229
2023-03-29T02:46:30.055Z,1.0852
2023-03-29T02:47:31.506Z,0.9192
2023-03-29T02:48:32.945Z,0.8037
2023-03-29T02:49:34.309Z,1.0200
2023-03-29T02:50:35.733Z,1.0148
2023-03-29T02:51:37.160Z,0.9781
2023-03-29T02:52:38.590Z,0.9495
2023-03-29T02:53:40.052Z,0.9209
2023-03-29T02:54:41.437Z,1.1109
2023-03-29T02:55:42.964Z,0.9400
2023-03-29T02:56:44.334Z,0.9764
2023-03-29T02:57:45.755Z,1.0207
2023-03-29T02:58:47.183Z,0.9219
2023-03-29T02:59:48.604Z,0.9492
2023-03-29T03:00:50.005Z,0.9986
2023-03-29T03:01:51.512Z,0.9552
2023-03-29T03:02:52.965Z,1.0710
2023-03-29T03:03:54.354Z,0.8812
2023-03-29T03:04:55.757Z,0.9761
2023-03-29T03:05:57.161Z,0.9520
2023-03-29T03:06:58.576Z,0.9764
2023-03-29T03:08:00.013Z,1.0209
2023-03-29T03:09:02.022Z,0.9899
2023-03-29T03:10:02.887Z,0.9657
2023-03-29T03:11:04.507Z,0.7644
2023-03-29T03:12:05.734Z,1.0390
2023-03-29T03:13:07.168Z,0.9238
2023-03-29T03:14:08.606Z,0.8787
2023-03-29T03:15:10.024Z,0.9228
2023-03-29T03:16:11.456Z,0.9265
2023-03-29T03:17:12.859Z,0.9544
2023-03-29T03:18:14.294Z,0.8185
2023-03-29T03:19:15.740Z,0.8263
2023-03-29T03:20:17.147Z,0.9557
2023-03-29T03:21:18.589Z,0.9960
2023-03-29T03:22:20.006Z,0.9394
2023-03-29T03:23:21.489Z,0.8786
2023-03-29T03:24:22.860Z,0.9034
2023-03-29T03:25:24.259Z,0.9616
2023-03-29T03:26:25.692Z,1.0293
2023-03-29T03:27:27.147Z,0.8329
2023-03-29T03:28:28.653Z,0.7306
2023-03-29T03:29:30.006Z,0.9568
2023-03-29T03:30:31.464Z,0.9681
2023-03-29T03:31:32.928Z,0.8907
2023-03-29T03:32:34.327Z,0.9281
2023-03-29T03:33:35.726Z,0.9308
2023-03-29T03:34:37.148Z,1.1031
2023-03-29T03:35:38.589Z,0.9255
2023-03-29T03:36:39.984Z,0.8899
2023-03-29T03:37:41.408Z,1.0124
2023-03-29T03:38:42.869Z,1.0546
2023-03-29T03:39:44.274Z,0.9664
2023-03-29T03:40:45.702Z,1.0644
2023-03-29T03:41:47.155Z,1.0832
2023-03-29T03:42:48.541Z,0.9440
2023-03-29T03:43:49.970Z,0.9956
2023-03-29T03:44:51.427Z,0.8648
2023-03-29T03:45:52.927Z,0.9807
2023-03-29T03:46:54.251Z,0.8875
2023-03-29T03:47:55.675Z,1.0703
2023-03-29T03:48:57.161Z,1.1069
2023-03-29T03:49:58.534Z,0.9338
2023-03-29T03:51:00.052Z,1.1279
2023-03-29T03:52:01.389Z,0.9846
2023-03-29T03:53:02.808Z,1.0049
2023-03-29T03:54:04.292Z,1.1214
2023-03-29T03:55:05.691Z,1.1299
2023-03-29T03:56:07.090Z,1.1108
2023-03-29T03:57:08.528Z,0.8682
2023-03-29T03:58:09.962Z,1.0094
2023-03-29T03:59:11.400Z,1.0703
2023-03-29T04:00:12.804Z,1.0394
2023-03-29T04:01:14.237Z,1.0423
2023-03-29T04:02:15.735Z,1.0484
2023-03-29T04:03:17.263Z,1.2289
2023-03-29T04:04:18.552Z,1.1918
2023-03-29T04:05:20.024Z,1.0492
2023-03-29T04:06:21.363Z,1.0730
2023-03-29T04:07:22.820Z,1.1519
2023-03-29T04:08:24.233Z,0.8956
2023-03-29T04:09:25.696Z,0.9072
2023-03-29T04:10:27.100Z,1.0323
2023-03-29T04:11:28.538Z,1.0608
2023-03-29T04:12:29.981Z,1.1309
2023-03-29T04:13:31.384Z,1.1614
2023-03-29T04:14:32.808Z,1.0505
2023-03-29T04:15:34.304Z,1.1203
2023-03-29T04:16:35.663Z,0.9943
2023-03-29T04:17:37.201Z,0.9100
2023-03-29T04:18:38.593Z,1.2972
2023-03-29T04:19:39.988Z,1.2479
2023-03-29T04:20:41.376Z,0.9355
2023-03-29T04:21:42.823Z,1.2015
2023-03-29T04:22:44.325Z,1.3690
2023-03-29T04:23:45.678Z,1.3294
2023-03-29T04:24:47.100Z,1.4530
2023-03-29T04:25:48.528Z,1.3384
2023-03-29T04:26:49.958Z,1.1918
2023-03-29T04:27:51.389Z,1.0971
2023-03-29T04:28:52.797Z,0.9545
2023-03-29T04:29:54.267Z,0.9535
2023-03-29T04:30:55.658Z,1.2286
2023-03-29T04:31:57.096Z,1.1849
2023-03-29T04:32:58.606Z,1.3167
2023-03-29T04:34:00.514Z,1.2321
2023-03-29T04:35:01.441Z,0.9337
2023-03-29T04:36:02.837Z,1.1204
2023-03-29T04:37:04.220Z,1.1779
2023-03-29T04:38:05.652Z,1.0142
2023-03-29T04:39:07.104Z,0.9804
2023-03-29T04:40:08.540Z,1.1022
2023-03-29T04:41:10.963Z,1.1653
2023-03-29T04:42:11.459Z,1.3580
2023-03-29T04:43:12.804Z,1.1113
2023-03-29T04:44:14.218Z,1.2708
2023-03-29T04:45:15.722Z,1.2149
2023-03-29T04:46:17.148Z,1.2085
2023-03-29T04:47:18.500Z,1.1019
2023-03-29T04:48:19.937Z,1.1497
2023-03-29T04:49:21.802Z,1.3173
2023-03-29T04:50:22.797Z,1.2575
2023-03-29T04:51:24.237Z,1.4710
2023-03-29T04:52:25.662Z,1.2390
2023-03-29T04:53:27.080Z,1.0258
2023-03-29T04:54:28.536Z,1.1521
2023-03-29T04:55:29.925Z,1.0639
2023-03-29T04:56:31.375Z,1.0228
2023-03-29T04:57:32.793Z,0.9742
2023-03-29T04:58:34.230Z,1.3199
2023-03-29T04:59:35.664Z,1.2438
2023-03-29T05:00:37.090Z,1.0455
2023-03-29T05:01:42.738Z,1.0899
2023-03-29T05:02:39.316Z,1.2176
2023-03-29T05:03:41.365Z,1.0567
2023-03-29T05:04:42.873Z,0.8463
2023-03-29T05:05:44.211Z,1.0660
2023-03-29T05:06:45.632Z,1.1486
2023-03-29T05:07:47.083Z,1.1480
2023-03-29T05:08:48.471Z,0.9555
2023-03-29T05:09:49.924Z,1.0807
2023-03-29T05:10:51.325Z,1.0751
2023-03-29T05:11:52.772Z,1.0853
2023-03-29T05:12:54.461Z,0.9564
2023-03-29T05:13:55.633Z,1.0963
2023-03-29T05:14:57.013Z,0.9742
2023-03-29T05:15:58.490Z,1.2527
2023-03-29T05:16:59.905Z,0.9691
2023-03-29T05:18:01.374Z,1.0483
2023-03-29T05:19:02.755Z,0.9562
2023-03-29T05:20:04.182Z,1.0923
2023-03-29T05:21:05.613Z,0.9555
2023-03-29T05:22:07.044Z,1.0262
2023-03-29T05:23:08.426Z,0.9967
2023-03-29T05:24:09.909Z,1.1133
2023-03-29T05:25:11.318Z,0.9728
2023-03-29T05:26:12.729Z,1.1086
2023-03-29T05:27:14.181Z,1.0326
2023-03-29T05:28:15.589Z,0.9983
2023-03-29T05:29:17.017Z,1.0347
2023-03-29T05:30:18.433Z,1.0838
2023-03-29T05:31:19.919Z,0.9549
2023-03-29T05:32:22.097Z,1.0620
2023-03-29T05:33:22.749Z,0.9606
2023-03-29T05:34:24.155Z,0.9538
2023-03-29T05:35:25.545Z,0.9341
2023-03-29T05:36:26.993Z,0.9928
2023-03-29T05:37:28.404Z,1.0297
2023-03-29T05:38:29.829Z,0.9972
2023-03-29T05:39:31.253Z,0.8945
2023-03-29T05:40:32.725Z,0.9611
2023-03-29T05:41:34.116Z,1.0409
2023-03-29T05:42:35.552Z,1.2594
2023-03-29T05:43:37.000Z,1.0699
2023-03-29T05:44:38.454Z,1.2229
2023-03-29T05:45:39.818Z,1.0411
2023-03-29T05:46:41.305Z,1.0306
2023-03-29T05:47:42.847Z,1.1410
2023-03-29T05:48:44.079Z,1.1179
2023-03-29T05:49:45.639Z,1.0813
2023-03-29T05:50:47.040Z,0.9818
2023-03-29T05:51:48.377Z,1.0147
2023-03-29T05:52:49.783Z,1.0066
2023-03-29T05:53:51.215Z,1.0572
2023-03-29T05:54:52.633Z,1.0287
2023-03-29T05:55:54.106Z,1.1161
2023-03-29T05:56:55.534Z,1.0760
2023-03-29T05:57:56.925Z,1.0052
2023-03-29T05:58:58.363Z,0.9928
2023-03-29T05:59:59.818Z,1.0945
2023-03-29T06:01:01.479Z,1.1413
2023-03-29T06:02:02.737Z,1.1261
2023-03-29T06:03:17.651Z,1.1652
2023-03-29T06:04:05.504Z,1.0556
2023-03-29T06:05:06.996Z,1.1193
2023-03-29T06:06:08.343Z,1.1269
2023-03-29T06:07:09.785Z,1.1201
2023-03-29T06:08:11.210Z,1.0232
2023-03-29T06:09:12.628Z,1.2664
2023-03-29T06:10:14.064Z,1.1503
2023-03-29T06:11:15.468Z,1.0630
2023-03-29T06:12:16.931Z,1.3194
2023-03-29T06:13:18.328Z,1.1099
2023-03-29T06:14:19.755Z,1.3202
2023-03-29T06:15:21.313Z,1.4099
2023-03-29T06:16:22.765Z,1.3580
2023-03-29T06:17:24.219Z,1.2511
2023-03-29T06:18:25.565Z,1.2850
2023-03-29T06:19:26.974Z,1.1851
2023-03-29T06:20:28.400Z,1.0973
2023-03-29T06:21:29.829Z,1.0315
2023-03-29T06:22:31.250Z,1.4176
2023-03-29T06:23:32.666Z,1.2626
2023-03-29T06:24:34.087Z,1.3843
2023-03-29T06:25:35.514Z,1.4102
2023-03-29T06:26:36.962Z,1.2139
2023-03-29T06:27:38.377Z,1.3480
2023-03-29T06:28:39.782Z,1.5154
2023-03-29T06:29:41.249Z,1.2927
2023-03-29T06:30:42.642Z,1.3594
2023-03-29T06:31:44.154Z,1.2225
2023-03-29T06:32:45.554Z,1.3316
2023-03-29T06:33:46.965Z,1.3238
2023-03-29T06:34:48.362Z,1.2726
2023-03-29T06:35:49.907Z,1.2432
2023-03-29T06:36:51.202Z,1.3344
2023-03-29T06:37:52.644Z,1.2249
2023-03-29T06:38:54.082Z,1.0600
2023-03-29T06:39:55.505Z,1.1371
2023-03-29T06:40:56.948Z,1.1564
2023-03-29T06:41:58.351Z,1.0919
2023-03-29T06:42:59.762Z,1.2158
2023-03-29T06:44:01.218Z,1.1853
2023-03-29T06:45:02.666Z,1.2325
2023-03-29T06:46:04.138Z,1.1315
2023-03-29T06:47:05.577Z,1.2901
2023-03-29T06:48:06.972Z,1.2080
2023-03-29T06:49:08.350Z,1.1118
2023-03-29T06:50:09.798Z,1.2868
2023-03-29T06:51:11.201Z,1.3557
2023-03-29T06:52:12.665Z,0.9402
2023-03-29T06:53:14.060Z,1.2811
2023-03-29T06:54:15.469Z,1.3765
2023-03-29T06:55:16.878Z,1.1321
2023-03-29T06:56:18.335Z,1.1921
2023-03-29T06:57:19.848Z,1.1477
2023-03-29T06:58:21.175Z,1.3788
2023-03-29T06:59:22.628Z,1.2425
2023-03-29T07:00:24.038Z,1.2207
2023-03-29T07:01:25.486Z,1.2950
2023-03-29T07:02:26.947Z,1.3246
2023-03-29T07:03:28.319Z,1.1790
2023-03-29T07:04:29.831Z,1.2565
2023-03-29T07:05:31.174Z,1.3761
2023-03-29T07:06:32.605Z,1.2013
2023-03-29T07:07:34.028Z,1.0431
2023-03-29T07:08:35.442Z,1.0179
2023-03-29T07:09:36.874Z,1.2099
2023-03-29T07:10:38.357Z,1.2578
2023-03-29T07:11:39.747Z,1.2159
2023-03-29T07:12:41.146Z,1.1741
2023-03-29T07:13:42.807Z,1.2643
2023-03-29T07:14:46.242Z,1.1844
2023-03-29T07:15:45.425Z,1.2827
2023-03-29T07:16:47.104Z,1.3786
2023-03-29T07:17:48.289Z,1.2866
2023-03-29T07:18:49.701Z,1.2639
2023-03-29T07:19:51.109Z,1.0255
2023-03-29T07:20:52.594Z,1.2777
2023-03-29T07:21:54.014Z,1.1142
2023-03-29T07:22:55.405Z,1.3924
2023-03-29T07:23:56.820Z,1.3046
2023-03-29T07:24:58.244Z,1.3158
2023-03-29T07:25:59.649Z,1.2506
2023-03-29T07:27:04.486Z,1.1835
2023-03-29T07:28:02.499Z,1.2561
2023-03-29T07:29:03.925Z,1.3656
2023-03-29T07:30:05.348Z,1.4149
2023-03-29T07:31:06.814Z,1.3452
2023-03-29T07:32:08.290Z,1.3301
2023-03-29T07:33:09.782Z,1.4076
2023-03-29T07:34:11.134Z,1.3672
2023-03-29T07:35:12.529Z,1.3349
2023-03-29T07:36:13.993Z,1.2417
2023-03-29T07:37:15.371Z,1.4294
2023-03-29T07:38:16.828Z,1.5408
2023-03-29T07:39:18.206Z,1.3155
2023-03-29T07:40:19.639Z,1.3594
2023-03-29T07:41:21.050Z,1.1905
2023-03-29T07:42:22.493Z,1.4757
2023-03-29T07:43:23.902Z,1.5119
2023-03-29T07:44:25.333Z,1.3322
2023-03-29T07:45:28.587Z,1.4981
2023-03-29T07:46:28.225Z,1.5476
2023-03-29T07:47:29.649Z,1.3272
2023-03-29T07:48:31.024Z,1.6247
2023-03-29T07:49:32.464Z,1.5199
2023-03-29T07:50:33.877Z,1.4281
2023-03-29T07:51:35.315Z,1.6036
2023-03-29T07:52:36.735Z,1.4615
2023-03-29T07:53:38.174Z,1.4438
2023-03-29T07:54:39.600Z,1.3644
2023-03-29T07:55:41.001Z,1.4200
2023-03-29T07:56:42.449Z,1.3882
2023-03-29T07:57:43.857Z,1.2529
2023-03-29T07:58:45.297Z,1.4412
2023-03-29T07:59:46.723Z,1.2662
2023-03-29T08:00:48.151Z,1.4250
2023-03-29T08:01:49.567Z,1.3218
2023-03-29T08:02:51.025Z,1.4499
2023-03-29T08:03:52.550Z,1.2163
2023-03-29T08:04:54.032Z,1.3445
2023-03-29T08:05:55.283Z,1.3032
2023-03-29T08:06:56.695Z,1.4242
2023-03-29T08:07:58.125Z,1.3602
2023-03-29T08:08:59.554Z,1.5193
2023-03-29T08:10:01.001Z,1.5659
2023-03-29T08:11:02.585Z,1.3258
2023-03-29T08:12:03.822Z,1.2447
2023-03-29T08:13:05.257Z,1.2070
2023-03-29T08:14:06.710Z,1.3722
2023-03-29T08:15:08.194Z,1.3879
2023-03-29T08:16:09.542Z,1.4427
2023-03-29T08:17:11.050Z,1.1936
2023-03-29T08:18:12.470Z,1.1919
2023-03-29T08:19:13.810Z,1.3767
2023-03-29T08:20:15.249Z,1.1832
2023-03-29T08:21:16.665Z,1.2152
2023-03-29T08:22:18.102Z,1.2778
2023-03-29T08:23:19.538Z,1.3823
2023-03-29T08:24:21.174Z,1.3836
2023-03-29T08:25:22.383Z,1.3187
2023-03-29T08:26:23.803Z,1.3172
2023-03-29T08:27:25.214Z,1.6416
2023-03-29T08:28:26.684Z,1.3643
2023-03-29T08:29:28.082Z,1.3767
2023-03-29T08:30:29.519Z,1.2937
2023-03-29T08:31:31.004Z,1.2624
2023-03-29T08:32:32.383Z,1.3097
2023-03-29T08:33:33.809Z,1.4121
2023-03-29T08:34:35.205Z,1.3350
2023-03-29T08:35:36.662Z,1.3530
2023-03-29T08:36:38.060Z,1.3231
2023-03-29T08:37:39.491Z,1.3211
2023-03-29T08:38:40.986Z,1.3276
2023-03-29T08:39:42.359Z,1.1535
2023-03-29T08:40:43.761Z,1.3085
2023-03-29T08:41:45.171Z,1.4601
2023-03-29T08:42:46.596Z,1.1999
2023-03-29T08:43:48.050Z,1.3279
2023-03-29T08:44:49.470Z,1.2368
2023-03-29T08:45:51.236Z,1.2963
2023-03-29T08:46:52.358Z,1.3507
2023-03-29T08:47:53.818Z,1.4562
2023-03-29T08:48:55.197Z,1.3271
2023-03-29T08:49:56.597Z,1.3057
2023-03-29T08:50:58.022Z,1.2903
2023-03-29T08:51:59.451Z,1.2165
2023-03-29T08:53:00.866Z,1.2876
2023-03-29T08:54:02.326Z,1.4117
2023-03-29T08:55:03.732Z,1.7431
2023-03-29T08:56:05.201Z,1.2569
2023-03-29T08:57:06.589Z,1.3430
2023-03-29T08:58:08.004Z,1.4337
2023-03-29T08:59:09.483Z,1.1371
2023-03-29T09:00:10.867Z,1.1156
2023-03-29T09:01:12.344Z,1.3555
2023-03-29T09:02:13.749Z,1.2126
2023-03-29T09:03:15.213Z,1.1902
2023-03-29T09:04:16.605Z,1.4880
2023-03-29T09:05:18.049Z,1.0893
2023-03-29T09:06:19.454Z,1.0790
2023-03-29T09:07:20.889Z,1.3027
2023-03-29T09:08:22.302Z,1.0489
2023-03-29T09:09:23.750Z,1.1482
2023-03-29T09:10:25.183Z,1.1184
2023-03-29T09:11:26.627Z,1.2951
2023-03-29T09:12:28.013Z,1.3058
2023-03-29T09:13:29.535Z,1.1230
2023-03-29T09:14:30.873Z,1.1632
2023-03-29T09:15:32.391Z,1.3402
2023-03-29T09:16:33.764Z,1.2623
2023-03-29T09:17:35.186Z,1.3721
2023-03-29T09:18:36.632Z,1.2896
2023-03-29T09:19:38.030Z,1.0854
2023-03-29T09:20:39.516Z,1.1891
2023-03-29T09:21:40.872Z,1.1690
2023-03-29T09:22:42.313Z,1.2464
2023-03-29T09:23:43.744Z,1.3586
2023-03-29T09:24:45.177Z,1.3704
2023-03-29T09:25:53.554Z,1.2678
2023-03-29T09:26:48.041Z,1.5707
2023-03-29T09:27:49.461Z,1.2710
2023-03-29T09:28:50.896Z,1.2981
2023-03-29T09:29:52.299Z,1.5405
2023-03-29T09:30:53.750Z,1.1846
2023-03-29T09:31:55.153Z,1.0409
2023-03-29T09:32:56.652Z,1.1877
2023-03-29T09:33:57.994Z,1.0704
2023-03-29T09:34:59.444Z,1.1977
2023-03-29T09:36:00.899Z,1.0982
2023-03-29T09:37:02.272Z,1.2265
2023-03-29T09:38:03.702Z,1.1282
2023-03-29T09:39:05.157Z,1.3352
2023-03-29T09:40:06.568Z,1.2379
2023-03-29T09:41:07.997Z,1.1207
2023-03-29T09:42:09.494Z,1.2571
2023-03-29T09:43:10.853Z,0.9536
2023-03-29T09:44:20.773Z,1.1472
2023-03-29T09:45:13.718Z,1.1451
2023-03-29T09:46:15.216Z,1.1268
2023-03-29T09:47:16.547Z,1.0413
2023-03-29T09:48:17.957Z,1.0021
2023-03-29T09:49:19.409Z,0.9999
2023-03-29T09:50:30.960Z,1.1017
2023-03-29T09:51:22.342Z,1.0734
2023-03-29T09:52:23.690Z,1.2479
2023-03-29T09:53:25.126Z,1.1326
2023-03-29T09:54:26.534Z,1.0048
2023-03-29T09:55:27.967Z,1.0602
2023-03-29T09:56:29.400Z,1.2085
2023-03-29T09:57:30.943Z,1.3128
2023-03-29T09:58:32.239Z,1.3642
2023-03-29T09:59:33.684Z,1.3464
2023-03-29T10:00:35.105Z,1.2814
2023-03-29T10:01:36.553Z,1.3017
2023-03-29T10:02:38.036Z,1.2886
2023-03-29T10:03:39.404Z,1.4287
2023-03-29T10:04:40.881Z,1.2707
2023-03-29T10:05:42.245Z,1.2763
2023-03-29T10:06:43.676Z,1.0617
2023-03-29T10:07:45.149Z,1.1220
2023-03-29T10:08:46.522Z,1.1204
2023-03-29T10:09:47.980Z,0.9671
2023-03-29T10:10:49.392Z,1.0944
2023-03-29T10:11:50.875Z,1.3863
2023-03-29T10:12:52.256Z,1.0596
2023-03-29T10:13:53.700Z,1.1965
2023-03-29T10:14:55.193Z,1.0565
2023-03-29T10:15:56.549Z,1.2274
2023-03-29T10:16:58.046Z,1.0978
2023-03-29T10:17:59.607Z,0.9244
2023-03-29T10:19:00.932Z,1.1012
2023-03-29T10:20:04.217Z,1.1309
2023-03-29T10:21:04.146Z,1.1055
2023-03-29T10:22:05.223Z,1.1144
2023-03-29T10:23:06.648Z,1.3232
2023-03-29T10:24:08.071Z,1.3656
2023-03-29T10:25:09.491Z,1.4213
2023-03-29T10:26:10.910Z,1.1313
2023-03-29T10:27:12.325Z,1.1494
2023-03-29T10:28:13.764Z,1.2057
2023-03-29T10:29:15.169Z,1.2385
2023-03-29T10:30:16.626Z,1.0707
2023-03-29T10:31:18.075Z,1.1575
2023-03-29T10:32:19.483Z,1.1234
2023-03-29T10:33:20.930Z,1.1879
2023-03-29T10:34:22.319Z,1.0058
2023-03-29T10:35:23.742Z,1.1128
2023-03-29T10:36:25.173Z,1.0797
2023-03-29T10:37:26.613Z,1.2080
2023-03-29T10:38:28.037Z,1.0322
2023-03-29T10:39:29.446Z,1.1096
2023-03-29T10:40:30.947Z,1.2031
2023-03-29T10:41:32.305Z,1.0968
2023-03-29T10:42:33.754Z,1.2926
2023-03-29T10:43:35.170Z,1.2115
2023-03-29T10:44:36.638Z,1.1978
2023-03-29T10:45:38.043Z,1.0008
2023-03-29T10:46:39.496Z,1.1276
2023-03-29T10:47:40.930Z,1.0517
2023-03-29T10:48:42.309Z,1.2253
2023-03-29T10:49:43.741Z,1.1528
2023-03-29T10:50:45.165Z,1.2453
2023-03-29T10:51:46.593Z,1.1496
2023-03-29T10:52:48.022Z,1.0250
2023-03-29T10:53:49.434Z,1.1700
2023-03-29T10:54:50.891Z,1.1424
2023-03-29T10:55:52.309Z,1.2824
2023-03-29T10:56:53.739Z,1.1205
2023-03-29T10:57:55.182Z,1.1571
2023-03-29T10:58:56.625Z,1.2170
2023-03-29T10:59:58.042Z,1.1091
2023-03-29T11:00:59.491Z,1.2157
2023-03-29T11:02:00.910Z,1.1426
2023-03-29T11:03:02.377Z,1.1750
2023-03-29T11:04:03.873Z,0.9578
2023-03-29T11:05:05.211Z,1.0714
2023-03-29T11:06:06.597Z,1.3519
2023-03-29T11:07:08.062Z,1.2457
2023-03-29T11:08:09.486Z,1.1197
2023-03-29T11:09:10.886Z,1.0707
2023-03-29T11:10:12.369Z,1.0441
2023-03-29T11:11:13.739Z,1.1536
2023-03-29T11:12:16.423Z,1.0919
2023-03-29T11:13:16.588Z,1.0790
2023-03-29T11:14:18.032Z,0.9688
2023-03-29T11:15:19.445Z,1.2232
2023-03-29T11:16:20.998Z,1.2093
2023-03-29T11:17:22.390Z,1.2614
2023-03-29T11:18:23.739Z,1.3904
2023-03-29T11:19:25.177Z,1.2256
2023-03-29T11:20:26.573Z,1.1184
2023-03-29T11:21:28.069Z,1.1570
2023-03-29T11:22:29.431Z,0.9806
2023-03-29T11:23:30.866Z,1.1650
2023-03-29T11:24:32.286Z,1.1341
2023-03-29T11:25:33.709Z,1.2734
2023-03-29T11:26:35.205Z,1.1304
2023-03-29T11:27:36.582Z,1.2558
2023-03-29T11:28:37.988Z,1.2451
2023-03-29T11:29:39.432Z,1.1898
2023-03-29T11:30:40.845Z,0.8973
2023-03-29T11:31:42.344Z,1.1975
2023-03-29T11:32:43.725Z,0.9531
2023-03-29T11:33:45.157Z,0.8958
2023-03-29T11:34:46.530Z,1.0971
2023-03-29T11:35:48.131Z,1.0966
2023-03-29T11:36:49.389Z,0.8861
2023-03-29T11:37:50.825Z,1.0382
2023-03-29T11:38:52.242Z,1.2197
2023-03-29T11:39:53.690Z,1.2065
2023-03-29T11:40:55.094Z,0.9314
2023-03-29T11:41:56.564Z,1.0516
2023-03-29T11:42:57.950Z,1.1361
2023-03-29T11:43:59.375Z,0.9299
2023-03-29T11:45:00.810Z,0.9380
2023-03-29T11:46:02.277Z,1.1372
2023-03-29T11:47:03.741Z,1.0251
2023-03-29T11:48:05.176Z,1.1323
2023-03-29T11:49:06.518Z,1.0466
2023-03-29T11:50:07.945Z,1.0785
2023-03-29T11:51:09.365Z,0.9705
2023-03-29T11:52:10.797Z,1.0031
2023-03-29T11:53:12.241Z,1.0647
2023-03-29T11:54:13.641Z,1.2293
2023-03-29T11:55:15.069Z,1.0556
2023-03-29T11:56:16.491Z,0.9644
2023-03-29T11:57:17.999Z,1.1578
2023-03-29T11:58:19.330Z,0.9885
2023-03-29T11:59:20.747Z,1.0567
2023-03-29T12:00:22.176Z,1.0947
2023-03-29T12:01:23.585Z,1.0147
2023-03-29T12:02:25.221Z,0.9409
2023-03-29T12:03:26.495Z,1.4012
2023-03-29T12:04:27.928Z,1.0984
2023-03-29T12:05:29.296Z,1.1035
2023-03-29T12:06:30.741Z,1.0340
2023-03-29T12:07:32.199Z,1.0890
2023-03-29T12:08:33.590Z,1.0184
2023-03-29T12:09:34.998Z,1.0795
2023-03-29T12:10:36.449Z,0.9970
2023-03-29T12:11:37.857Z,1.1012
2023-03-29T12:12:39.310Z,1.2026
2023-03-29T12:13:40.725Z,1.2685
2023-03-29T12:14:42.169Z,1.2703
2023-03-29T12:15:43.604Z,1.1752
2023-03-29T12:16:45.066Z,1.1251
2023-03-29T12:17:46.497Z,1.1465
2023-03-29T12:18:47.882Z,1.4978
2023-03-29T12:19:49.284Z,1.4633
2023-03-29T12:20:50.730Z,1.2313
2023-03-29T12:21:52.137Z,1.4773
2023-03-29T12:22:53.606Z,1.4122
2023-03-29T12:23:54.993Z,1.4963
2023-03-29T12:24:56.425Z,1.4198
2023-03-29T12:25:57.850Z,1.4881
2023-03-29T12:26:59.295Z,1.4065
2023-03-29T12:28:00.757Z,1.5670
2023-03-29T12:29:02.136Z,1.3905
2023-03-29T12:30:03.584Z,1.2553
2023-03-29T12:31:05.143Z,1.3020
2023-03-29T12:32:06.476Z,1.1757
2023-03-29T12:33:07.881Z,1.4013
2023-03-29T12:34:09.292Z,1.1490
2023-03-29T12:35:10.727Z,1.0986
2023-03-29T12:36:12.180Z,1.1975
2023-03-29T12:37:13.562Z,1.3633
2023-03-29T12:38:14.976Z,1.4001
2023-03-29T12:39:16.445Z,1.5664
2023-03-29T12:40:17.826Z,1.2114
2023-03-29T12:41:19.346Z,1.2731
2023-03-29T12:42:20.715Z,1.5267
2023-03-29T12:43:22.118Z,1.4185
2023-03-29T12:44:23.574Z,1.2722
2023-03-29T12:45:24.962Z,1.4637
2023-03-29T12:46:26.550Z,1.3945